Аэропорт: Нальчик. Нальчик

ICAO: URMN

METAR:
2019-11-21 01:00:00
URMN 210100Z 00000MPS 2000 -FZDZ BR OVC004 M01/M01 Q1028 R24/////// NOSIG RMK MT OBSC OBST OBSC QFE734
METAR:
2019-11-20 23:00:00
TAF URMN 202300Z 2100/2109 06003MPS 1500 BR OVC003 TEMPO 2100/2109 0400 FZDZ FZFG OVC002